createdAt,value
2018-02-12T00:00:22.621Z,2.99
2018-02-12T00:01:22.538Z,2.99
2018-02-12T00:02:22.457Z,2.99
2018-02-12T00:03:22.371Z,3.04
2018-02-12T00:04:22.289Z,3.04
2018-02-12T00:05:22.206Z,3.01
2018-02-12T00:06:22.121Z,3.01
2018-02-12T00:07:22.039Z,3.04
2018-02-12T00:08:21.958Z,2.96
2018-02-12T00:09:21.873Z,2.96
2018-02-12T00:10:21.789Z,2.89
2018-02-12T00:11:21.707Z,2.88
2018-02-12T00:12:21.624Z,2.91
2018-02-12T00:13:21.544Z,3.01
2018-02-12T00:14:21.457Z,3.04
2018-02-12T00:15:21.377Z,3.07
2018-02-12T00:16:21.291Z,3.07
2018-02-12T00:17:21.211Z,3.11
2018-02-12T00:18:21.128Z,3.10
2018-02-12T00:19:21.040Z,3.14
2018-02-12T00:20:20.957Z,3.14
2018-02-12T00:21:20.875Z,3.13
2018-02-12T00:22:20.790Z,3.11
2018-02-12T00:23:20.706Z,3.10
2018-02-12T00:24:20.624Z,3.09
2018-02-12T00:25:20.540Z,2.99
2018-02-12T00:26:20.456Z,3.09
2018-02-12T00:27:20.374Z,2.98
2018-02-12T00:28:20.290Z,3.01
2018-02-12T00:29:20.207Z,3.03
2018-02-12T00:30:20.123Z,3.13
2018-02-12T00:31:20.039Z,3.06
2018-02-12T00:32:19.956Z,3.09
2018-02-12T00:33:19.873Z,3.11
2018-02-12T00:34:19.789Z,3.07
2018-02-12T00:35:19.705Z,3.07
2018-02-12T00:36:19.621Z,3.07
2018-02-12T00:37:19.539Z,3.14
2018-02-12T00:38:19.455Z,3.07
2018-02-12T00:39:19.373Z,3.13
2018-02-12T00:40:19.335Z,3.10
2018-02-12T00:41:19.204Z,3.13
2018-02-12T00:42:19.120Z,3.07
2018-02-12T00:43:19.037Z,3.09
2018-02-12T00:44:18.954Z,3.06
2018-02-12T00:45:18.882Z,3.07
2018-02-12T00:46:18.787Z,2.98
2018-02-12T00:47:18.702Z,2.99
2018-02-12T00:48:18.769Z,3.13
2018-02-12T00:49:18.544Z,3.06
2018-02-12T00:50:18.452Z,3.07
2018-02-12T00:51:18.368Z,3.01
2018-02-12T00:52:18.285Z,3.03
2018-02-12T00:53:18.202Z,2.99
2018-02-12T00:54:18.117Z,2.99
2018-02-12T00:55:18.034Z,2.99
2018-02-12T00:56:17.951Z,2.95
2018-02-12T00:57:17.867Z,2.89
2018-02-12T00:58:17.782Z,2.86
2018-02-12T00:59:17.699Z,2.91
2018-02-12T01:00:17.616Z,2.99
2018-02-12T01:01:17.533Z,2.96
2018-02-12T01:02:17.447Z,3.03
2018-02-12T01:03:17.364Z,2.95
2018-02-12T01:04:17.280Z,2.95
2018-02-12T01:05:17.196Z,2.88
2018-02-12T01:06:17.112Z,2.88
2018-02-12T01:07:17.029Z,2.78
2018-02-12T01:08:16.945Z,2.75
2018-02-12T01:09:16.861Z,2.75
2018-02-12T01:10:16.777Z,2.75
2018-02-12T01:11:16.693Z,2.70
2018-02-12T01:12:16.609Z,2.73
2018-02-12T01:13:16.526Z,2.67
2018-02-12T01:14:16.441Z,2.70
2018-02-12T01:15:16.357Z,2.70
2018-02-12T01:16:16.273Z,2.73
2018-02-12T01:17:16.190Z,2.74
2018-02-12T01:18:16.106Z,2.73
2018-02-12T01:19:16.022Z,2.77
2018-02-12T01:20:15.938Z,2.68
2018-02-12T01:21:15.854Z,2.66
2018-02-12T01:22:15.771Z,2.66
2018-02-12T01:23:15.686Z,2.70
2018-02-12T01:24:15.603Z,2.71
2018-02-12T01:25:15.519Z,2.68
2018-02-12T01:26:15.435Z,2.70
2018-02-12T01:27:15.351Z,2.71
2018-02-12T01:28:15.267Z,2.73
2018-02-12T01:29:15.185Z,2.71
2018-02-12T01:30:15.100Z,2.70
2018-02-12T01:31:15.016Z,2.63
2018-02-12T01:32:14.932Z,2.74
2018-02-12T01:33:14.848Z,2.71
2018-02-12T01:34:14.764Z,2.70
2018-02-12T01:35:14.680Z,2.55
2018-02-12T01:36:14.597Z,2.57
2018-02-12T01:37:14.513Z,2.41
2018-02-12T01:38:14.428Z,2.50
2018-02-12T01:39:14.344Z,2.41
2018-02-12T01:40:14.261Z,2.53
2018-02-12T01:41:14.177Z,2.38
2018-02-12T01:42:14.092Z,2.50
2018-02-12T01:43:14.008Z,2.34
2018-02-12T01:44:13.924Z,2.48
2018-02-12T01:45:13.841Z,2.46
2018-02-12T01:46:13.756Z,2.52
2018-02-12T01:47:13.772Z,2.48
2018-02-12T01:48:13.588Z,2.44
2018-02-12T01:49:13.503Z,2.67
2018-02-12T01:50:13.419Z,2.66
2018-02-12T01:51:13.335Z,2.63
2018-02-12T01:52:13.250Z,2.68
2018-02-12T01:53:13.168Z,2.67
2018-02-12T01:54:13.082Z,2.66
2018-02-12T01:55:13.001Z,2.70
2018-02-12T01:56:12.915Z,2.77
2018-02-12T01:57:12.831Z,2.80
2018-02-12T01:58:12.746Z,2.89
2018-02-12T01:59:12.663Z,2.89
2018-02-12T02:00:12.579Z,2.85
2018-02-12T02:01:12.494Z,2.93
2018-02-12T02:02:12.410Z,2.89
2018-02-12T02:03:12.326Z,2.80
2018-02-12T02:04:12.241Z,2.70
2018-02-12T02:05:12.157Z,2.71
2018-02-12T02:06:12.072Z,2.62
2018-02-12T02:07:11.989Z,2.57
2018-02-12T02:08:11.906Z,2.52
2018-02-12T02:09:11.821Z,2.49
2018-02-12T02:10:11.736Z,2.55
2018-02-12T02:11:11.658Z,2.42
2018-02-12T02:12:11.568Z,2.48
2018-02-12T02:13:11.485Z,2.41
2018-02-12T02:14:11.400Z,2.50
2018-02-12T02:15:11.316Z,2.53
2018-02-12T02:16:11.232Z,2.52
2018-02-12T02:17:11.149Z,2.52
2018-02-12T02:18:11.063Z,2.52
2018-02-12T02:19:10.980Z,2.46
2018-02-12T02:20:10.896Z,2.41
2018-02-12T02:21:10.812Z,2.41
2018-02-12T02:22:10.727Z,2.41
2018-02-12T02:23:10.644Z,2.41
2018-02-12T02:24:10.559Z,2.38
2018-02-12T02:25:10.476Z,2.49
2018-02-12T02:26:10.392Z,2.44
2018-02-12T02:27:10.307Z,2.53
2018-02-12T02:28:10.224Z,2.46
2018-02-12T02:29:10.140Z,2.52
2018-02-12T02:30:10.056Z,2.49
2018-02-12T02:31:09.972Z,2.49
2018-02-12T02:32:09.887Z,2.50
2018-02-12T02:33:09.805Z,2.44
2018-02-12T02:34:09.720Z,2.52
2018-02-12T02:35:09.637Z,2.46
2018-02-12T02:36:09.553Z,2.46
2018-02-12T02:37:09.468Z,2.56
2018-02-12T02:38:09.384Z,2.60
2018-02-12T02:39:09.301Z,2.67
2018-02-12T02:40:09.216Z,2.68
2018-02-12T02:41:09.133Z,2.70
2018-02-12T02:42:09.048Z,2.73
2018-02-12T02:43:08.963Z,2.73
2018-02-12T02:44:08.881Z,2.67
2018-02-12T02:45:08.796Z,2.67
2018-02-12T02:46:08.716Z,2.68
2018-02-12T02:47:08.629Z,2.73
2018-02-12T02:48:08.544Z,2.77
2018-02-12T02:49:08.461Z,2.67
2018-02-12T02:50:08.377Z,2.74
2018-02-12T02:51:08.293Z,2.77
2018-02-12T02:52:08.210Z,2.73
2018-02-12T02:53:08.127Z,2.70
2018-02-12T02:54:08.042Z,2.68
2018-02-12T02:55:07.958Z,2.70
2018-02-12T02:56:07.875Z,2.73
2018-02-12T02:57:07.791Z,2.59
2018-02-12T02:58:07.716Z,2.57
2018-02-12T02:59:07.624Z,2.57
2018-02-12T03:00:07.539Z,2.46
2018-02-12T03:01:07.457Z,2.50
2018-02-12T03:02:07.372Z,2.55
2018-02-12T03:03:07.288Z,2.48
2018-02-12T03:04:07.204Z,2.49
2018-02-12T03:05:07.120Z,2.50
2018-02-12T03:06:07.036Z,2.55
2018-02-12T03:07:06.952Z,2.60
2018-02-12T03:08:06.872Z,2.67
2018-02-12T03:09:06.785Z,2.71
2018-02-12T03:10:06.701Z,2.70
2018-02-12T03:11:06.617Z,2.73
2018-02-12T03:12:06.532Z,2.75
2018-02-12T03:13:06.449Z,2.74
2018-02-12T03:14:06.363Z,2.70
2018-02-12T03:15:06.280Z,2.67
2018-02-12T03:16:06.195Z,2.63
2018-02-12T03:17:06.113Z,2.53
2018-02-12T03:18:06.027Z,2.67
2018-02-12T03:19:05.944Z,2.59
2018-02-12T03:20:05.861Z,2.57
2018-02-12T03:21:05.776Z,2.50
2018-02-12T03:22:05.692Z,2.60
2018-02-12T03:23:05.608Z,2.63
2018-02-12T03:24:05.524Z,2.66
2018-02-12T03:25:05.440Z,2.66
2018-02-12T03:26:05.356Z,2.63
2018-02-12T03:27:05.271Z,2.60
2018-02-12T03:28:05.194Z,2.55
2018-02-12T03:29:05.106Z,2.46
2018-02-12T03:30:05.019Z,2.55
2018-02-12T03:31:04.936Z,2.63
2018-02-12T03:32:04.851Z,2.55
2018-02-12T03:33:04.767Z,2.57
2018-02-12T03:34:04.683Z,2.55
2018-02-12T03:35:04.632Z,2.49
2018-02-12T03:36:04.516Z,2.46
2018-02-12T03:37:04.432Z,2.57
2018-02-12T03:38:04.347Z,2.60
2018-02-12T03:39:04.264Z,2.59
2018-02-12T03:40:04.180Z,2.60
2018-02-12T03:41:04.096Z,2.53
2018-02-12T03:42:04.012Z,2.49
2018-02-12T03:43:03.928Z,2.66
2018-02-12T03:44:03.844Z,2.50
2018-02-12T03:45:03.761Z,2.55
2018-02-12T03:46:03.676Z,2.52
2018-02-12T03:47:03.592Z,2.52
2018-02-12T03:48:03.508Z,2.55
2018-02-12T03:49:03.424Z,2.53
2018-02-12T03:50:03.340Z,2.50
2018-02-12T03:51:03.257Z,2.52
2018-02-12T03:52:03.174Z,2.55
2018-02-12T03:53:03.089Z,2.44
2018-02-12T03:54:03.004Z,2.49
2018-02-12T03:55:02.920Z,2.41
2018-02-12T03:56:02.836Z,2.56
2018-02-12T03:57:02.756Z,2.56
2018-02-12T03:58:02.668Z,2.46
2018-02-12T03:59:02.584Z,2.49
2018-02-12T04:00:02.501Z,2.49
2018-02-12T04:01:02.418Z,2.50
2018-02-12T04:02:02.335Z,2.46
2018-02-12T04:03:02.249Z,2.42
2018-02-12T04:04:02.168Z,2.44
2018-02-12T04:05:02.082Z,2.34
2018-02-12T04:06:01.997Z,2.46
2018-02-12T04:07:01.914Z,2.49
2018-02-12T04:08:01.830Z,2.50
2018-02-12T04:09:01.747Z,2.46
2018-02-12T04:10:01.662Z,2.39
2018-02-12T04:11:01.578Z,2.52
2018-02-12T04:12:01.494Z,2.44
2018-02-12T04:13:01.411Z,2.42
2018-02-12T04:14:01.327Z,2.42
2018-02-12T04:15:01.243Z,2.49
2018-02-12T04:16:01.159Z,2.46
2018-02-12T04:17:01.076Z,2.46
2018-02-12T04:18:00.991Z,2.42
2018-02-12T04:19:00.908Z,2.46
2018-02-12T04:20:00.825Z,2.52
2018-02-12T04:21:00.740Z,2.39
2018-02-12T04:22:00.956Z,2.35
2018-02-12T04:23:00.573Z,2.41
2018-02-12T04:24:00.489Z,2.37
2018-02-12T04:25:00.406Z,2.41
2018-02-12T04:26:00.322Z,2.35
2018-02-12T04:27:00.239Z,2.37
2018-02-12T04:28:00.155Z,2.42
2018-02-12T04:29:00.072Z,2.46
2018-02-12T04:29:59.986Z,2.35
2018-02-12T04:30:59.904Z,2.39
2018-02-12T04:31:59.820Z,2.32
2018-02-12T04:32:59.736Z,2.41
2018-02-12T04:33:59.652Z,2.49
2018-02-12T04:34:59.569Z,2.35
2018-02-12T04:35:59.489Z,2.44
2018-02-12T04:36:59.403Z,2.46
2018-02-12T04:37:59.319Z,2.41
2018-02-12T04:38:59.237Z,2.41
2018-02-12T04:39:59.151Z,2.46
2018-02-12T04:40:59.069Z,2.37
2018-02-12T04:41:58.984Z,2.49
2018-02-12T04:42:58.900Z,2.42
2018-02-12T04:43:58.817Z,2.39
2018-02-12T04:44:58.735Z,2.32
2018-02-12T04:45:58.650Z,2.49
2018-02-12T04:46:58.567Z,2.38
2018-02-12T04:47:58.483Z,2.44
2018-02-12T04:48:58.400Z,2.34
2018-02-12T04:49:58.315Z,2.35
2018-02-12T04:50:58.232Z,2.31
2018-02-12T04:51:58.148Z,2.42
2018-02-12T04:52:58.065Z,2.37
2018-02-12T04:53:57.980Z,2.44
2018-02-12T04:54:57.898Z,2.42
2018-02-12T04:55:57.811Z,2.42
2018-02-12T04:56:57.729Z,2.44
2018-02-12T04:57:57.794Z,2.39
2018-02-12T04:58:57.559Z,2.44
2018-02-12T04:59:57.477Z,2.44
2018-02-12T05:00:57.393Z,2.42
2018-02-12T05:01:57.309Z,2.30
2018-02-12T05:02:57.226Z,2.44
2018-02-12T05:03:57.141Z,2.32
2018-02-12T05:04:57.057Z,2.49
2018-02-12T05:05:57.006Z,2.44
2018-02-12T05:06:56.889Z,2.28
2018-02-12T05:07:56.805Z,2.37
2018-02-12T05:08:56.722Z,2.38
2018-02-12T05:09:56.637Z,2.31
2018-02-12T05:10:56.553Z,2.32
2018-02-12T05:11:56.469Z,2.38
2018-02-12T05:12:56.386Z,2.30
2018-02-12T05:13:56.300Z,2.35
2018-02-12T05:14:56.217Z,2.32
2018-02-12T05:15:56.133Z,2.39
2018-02-12T05:16:56.049Z,2.31
2018-02-12T05:17:55.964Z,2.37
2018-02-12T05:18:55.880Z,2.48
2018-02-12T05:19:55.795Z,2.35
2018-02-12T05:20:55.712Z,2.34
2018-02-12T05:21:55.627Z,2.42
2018-02-12T05:22:55.543Z,2.37
2018-02-12T05:23:55.459Z,2.35
2018-02-12T05:24:55.375Z,2.31
2018-02-12T05:25:55.289Z,2.38
2018-02-12T05:26:55.206Z,2.35
2018-02-12T05:27:55.122Z,2.38
2018-02-12T05:28:55.039Z,2.41
2018-02-12T05:29:54.952Z,2.39
2018-02-12T05:30:54.868Z,2.39
2018-02-12T05:31:54.784Z,2.37
2018-02-12T05:32:54.701Z,2.35
2018-02-12T05:33:54.615Z,2.39
2018-02-12T05:34:54.531Z,2.32
2018-02-12T05:35:54.446Z,2.32
2018-02-12T05:36:54.363Z,2.34
2018-02-12T05:37:54.278Z,2.37
2018-02-12T05:38:54.194Z,2.24
2018-02-12T05:39:54.108Z,2.20
2018-02-12T05:40:54.025Z,2.26
2018-02-12T05:41:53.940Z,2.23
2018-02-12T05:42:53.855Z,2.23
2018-02-12T05:43:53.772Z,2.26
2018-02-12T05:44:53.688Z,2.31
2018-02-12T05:45:53.602Z,2.26
2018-02-12T05:46:53.518Z,2.23
2018-02-12T05:47:53.437Z,2.14
2018-02-12T05:48:53.350Z,2.12
2018-02-12T05:49:53.265Z,2.23
2018-02-12T05:50:53.181Z,2.14
2018-02-12T05:51:53.096Z,2.23
2018-02-12T05:52:53.012Z,2.24
2018-02-12T05:53:52.928Z,2.23
2018-02-12T05:54:52.846Z,2.24
2018-02-12T05:55:52.760Z,2.24
2018-02-12T05:56:52.676Z,2.19
2018-02-12T05:57:52.591Z,2.28
2018-02-12T05:58:52.532Z,2.16
2018-02-12T05:59:52.423Z,2.19
2018-02-12T06:00:52.339Z,2.23
2018-02-12T06:01:52.253Z,2.21
2018-02-12T06:02:52.170Z,2.17
2018-02-12T06:03:52.087Z,2.23
2018-02-12T06:04:52.002Z,2.26
2018-02-12T06:05:51.917Z,2.26
2018-02-12T06:06:51.833Z,2.19
2018-02-12T06:07:51.749Z,2.24
2018-02-12T06:08:51.665Z,2.28
2018-02-12T06:09:51.581Z,2.16
2018-02-12T06:10:51.495Z,2.21
2018-02-12T06:11:51.411Z,2.21
2018-02-12T06:12:51.329Z,2.24
2018-02-12T06:13:51.243Z,2.24
2018-02-12T06:14:51.160Z,2.19
2018-02-12T06:15:51.075Z,2.23
2018-02-12T06:16:50.990Z,2.24
2018-02-12T06:17:50.906Z,2.20
2018-02-12T06:18:50.822Z,2.16
2018-02-12T06:19:50.738Z,2.16
2018-02-12T06:20:50.654Z,2.19
2018-02-12T06:21:50.567Z,2.05
2018-02-12T06:22:50.484Z,2.02
2018-02-12T06:23:50.400Z,2.06
2018-02-12T06:24:50.316Z,1.99
2018-02-12T06:25:50.229Z,2.09
2018-02-12T06:26:50.147Z,2.03
2018-02-12T06:27:50.064Z,2.03
2018-02-12T06:28:49.978Z,2.03
2018-02-12T06:29:49.895Z,2.03
2018-02-12T06:30:49.809Z,2.05
2018-02-12T06:31:49.724Z,2.05
2018-02-12T06:32:49.645Z,2.02
2018-02-12T06:33:49.554Z,2.03
2018-02-12T06:34:49.470Z,2.09
2018-02-12T06:35:49.386Z,2.09
2018-02-12T06:36:49.302Z,2.05
2018-02-12T06:37:49.217Z,2.03
2018-02-12T06:38:49.131Z,2.03
2018-02-12T06:39:49.048Z,2.09
2018-02-12T06:40:48.964Z,2.05
2018-02-12T06:41:48.878Z,2.02
2018-02-12T06:42:48.794Z,1.94
2018-02-12T06:43:48.708Z,1.91
2018-02-12T06:44:48.625Z,1.95
2018-02-12T06:45:48.540Z,1.87
2018-02-12T06:46:48.489Z,1.90
2018-02-12T06:47:48.371Z,1.80
2018-02-12T06:48:48.287Z,1.80
2018-02-12T06:49:48.202Z,1.91
2018-02-12T06:50:48.117Z,1.99
2018-02-12T06:51:48.033Z,1.92
2018-02-12T06:52:47.949Z,1.94
2018-02-12T06:53:47.864Z,1.86
2018-02-12T06:54:47.779Z,1.92
2018-02-12T06:55:47.694Z,1.79
2018-02-12T06:56:47.611Z,1.80
2018-02-12T06:57:47.529Z,1.87
2018-02-12T06:58:47.445Z,1.77
2018-02-12T06:59:47.356Z,1.80
2018-02-12T07:00:47.273Z,1.82
2018-02-12T07:01:47.188Z,1.77
2018-02-12T07:02:47.104Z,1.74
2018-02-12T07:03:47.022Z,1.79
2018-02-12T07:04:46.937Z,1.69
2018-02-12T07:05:46.850Z,1.73
2018-02-12T07:06:46.766Z,1.79
2018-02-12T07:07:46.697Z,1.76
2018-02-12T07:08:46.598Z,1.69
2018-02-12T07:09:46.513Z,1.77
2018-02-12T07:10:46.430Z,1.68
2018-02-12T07:11:46.345Z,1.58
2018-02-12T07:12:46.261Z,1.62
2018-02-12T07:13:46.176Z,1.69
2018-02-12T07:14:46.094Z,1.77
2018-02-12T07:15:46.008Z,1.80
2018-02-12T07:16:45.924Z,1.77
2018-02-12T07:17:45.838Z,1.80
2018-02-12T07:18:45.754Z,1.77
2018-02-12T07:19:45.672Z,1.73
2018-02-12T07:20:45.586Z,1.87
2018-02-12T07:21:45.501Z,1.74
2018-02-12T07:22:45.417Z,1.80
2018-02-12T07:23:45.334Z,1.87
2018-02-12T07:24:45.250Z,1.92
2018-02-12T07:25:45.206Z,1.92
2018-02-12T07:26:45.082Z,1.91
2018-02-12T07:27:44.997Z,2.01
2018-02-12T07:28:44.913Z,1.94
2018-02-12T07:29:44.827Z,1.91
2018-02-12T07:30:44.744Z,1.92
2018-02-12T07:31:44.662Z,1.99
2018-02-12T07:32:44.576Z,2.03
2018-02-12T07:33:44.492Z,2.10
2018-02-12T07:34:44.407Z,2.05
2018-02-12T07:35:44.324Z,2.12
2018-02-12T07:36:44.241Z,2.03
2018-02-12T07:37:44.157Z,1.80
2018-02-12T07:38:44.073Z,1.90
2018-02-12T07:39:43.989Z,1.84
2018-02-12T07:40:43.905Z,1.86
2018-02-12T07:41:43.820Z,1.84
2018-02-12T07:42:43.738Z,1.94
2018-02-12T07:43:43.652Z,1.84
2018-02-12T07:44:43.569Z,1.92
2018-02-12T07:45:43.484Z,1.84
2018-02-12T07:46:43.401Z,1.94
2018-02-12T07:47:43.317Z,1.95
2018-02-12T07:48:43.233Z,2.01
2018-02-12T07:49:43.149Z,2.02
2018-02-12T07:50:43.064Z,2.03
2018-02-12T07:51:42.981Z,2.03
2018-02-12T07:52:42.896Z,2.05
2018-02-12T07:53:42.812Z,1.99
2018-02-12T07:54:42.728Z,2.03
2018-02-12T07:55:42.645Z,2.03
2018-02-12T07:56:42.562Z,2.06
2018-02-12T07:57:42.476Z,2.01
2018-02-12T07:58:42.392Z,2.10
2018-02-12T07:59:42.309Z,2.16
2018-02-12T08:00:42.225Z,2.16
2018-02-12T08:01:42.141Z,2.24
2018-02-12T08:02:42.057Z,2.34
2018-02-12T08:03:41.972Z,2.32
2018-02-12T08:04:41.890Z,2.32
2018-02-12T08:05:41.805Z,2.39
2018-02-12T08:06:41.721Z,2.39
2018-02-12T08:07:41.637Z,2.55
2018-02-12T08:08:41.554Z,2.44
2018-02-12T08:09:41.473Z,2.38
2018-02-12T08:10:41.387Z,2.35
2018-02-12T08:11:41.303Z,2.37
2018-02-12T08:12:41.219Z,2.39
2018-02-12T08:13:41.136Z,2.35
2018-02-12T08:14:41.053Z,2.39
2018-02-12T08:15:40.968Z,2.46
2018-02-12T08:16:40.884Z,2.46
2018-02-12T08:17:40.801Z,2.30
2018-02-12T08:18:40.718Z,2.32
2018-02-12T08:19:40.633Z,2.53
2018-02-12T08:20:40.551Z,2.42
2018-02-12T08:21:40.467Z,2.48
2018-02-12T08:22:40.385Z,2.63
2018-02-12T08:23:40.302Z,2.62
2018-02-12T08:24:40.216Z,2.70
2018-02-12T08:25:40.133Z,2.56
2018-02-12T08:26:40.049Z,2.50
2018-02-12T08:27:39.966Z,2.49
2018-02-12T08:28:39.882Z,2.63
2018-02-12T08:29:39.799Z,2.78
2018-02-12T08:30:39.716Z,2.84
2018-02-12T08:31:39.633Z,2.86
2018-02-12T08:32:39.550Z,2.91
2018-02-12T08:33:39.466Z,2.88
2018-02-12T08:34:39.384Z,3.03
2018-02-12T08:35:39.303Z,2.99
2018-02-12T08:36:39.224Z,2.95
2018-02-12T08:37:39.134Z,2.89
2018-02-12T08:38:39.052Z,2.85
2018-02-12T08:39:38.969Z,2.89
2018-02-12T08:40:38.886Z,2.84
2018-02-12T08:41:38.803Z,2.88
2018-02-12T08:42:38.720Z,2.88
2018-02-12T08:43:38.637Z,2.84
2018-02-12T08:44:38.555Z,2.63
2018-02-12T08:45:38.472Z,2.75
2018-02-12T08:46:38.389Z,2.91
2018-02-12T08:47:38.306Z,2.93
2018-02-12T08:48:38.224Z,2.98
2018-02-12T08:49:38.140Z,2.95
2018-02-12T08:50:38.057Z,3.10
2018-02-12T08:51:37.976Z,3.28
2018-02-12T08:52:37.894Z,3.29
2018-02-12T08:53:37.810Z,3.39
2018-02-12T08:54:37.727Z,3.27
2018-02-12T08:55:37.646Z,3.13
2018-02-12T08:56:37.563Z,3.31
2018-02-12T08:57:37.480Z,3.32
2018-02-12T08:58:37.397Z,3.47
2018-02-12T08:59:37.316Z,3.41
2018-02-12T09:00:37.233Z,3.29
2018-02-12T09:01:37.154Z,3.35
2018-02-12T09:02:37.068Z,3.41
2018-02-12T09:03:36.986Z,3.62
2018-02-12T09:04:36.906Z,3.79
2018-02-12T09:05:36.823Z,3.83
2018-02-12T09:06:36.741Z,3.79
2018-02-12T09:07:36.661Z,3.68
2018-02-12T09:08:36.575Z,3.69
2018-02-12T09:09:36.492Z,3.69
2018-02-12T09:10:36.410Z,3.62
2018-02-12T09:11:36.329Z,3.61
2018-02-12T09:12:36.247Z,3.74
2018-02-12T09:13:36.164Z,3.82
2018-02-12T09:14:36.082Z,3.84
2018-02-12T09:15:36.010Z,3.93
2018-02-12T09:16:35.920Z,4.01
2018-02-12T09:17:35.837Z,4.36
2018-02-12T09:18:35.756Z,4.40
2018-02-12T09:19:35.674Z,4.28
2018-02-12T09:20:35.593Z,4.50
2018-02-12T09:21:35.512Z,4.55
2018-02-12T09:22:35.467Z,4.25
2018-02-12T09:23:35.349Z,4.16
2018-02-12T09:24:35.268Z,4.22
2018-02-12T09:25:35.186Z,4.29
2018-02-12T09:26:35.105Z,4.50
2018-02-12T09:27:35.025Z,4.54
2018-02-12T09:28:34.944Z,4.37
2018-02-12T09:29:34.862Z,4.23
2018-02-12T09:30:34.781Z,4.01
2018-02-12T09:31:34.700Z,4.11
2018-02-12T09:32:34.618Z,3.86
2018-02-12T09:33:34.556Z,3.84
2018-02-12T09:34:34.458Z,3.86
2018-02-12T09:35:34.375Z,3.87
2018-02-12T09:36:34.298Z,4.00
2018-02-12T09:37:34.213Z,4.15
2018-02-12T09:38:34.132Z,3.97
2018-02-12T09:39:34.056Z,3.79
2018-02-12T09:40:33.970Z,3.86
2018-02-12T09:41:33.932Z,4.00
2018-02-12T09:42:33.807Z,4.11
2018-02-12T09:43:33.724Z,4.19
2018-02-12T09:44:33.643Z,4.28
2018-02-12T09:45:33.598Z,4.34
2018-02-12T09:46:33.481Z,4.44
2018-02-12T09:47:33.403Z,4.20
2018-02-12T09:48:33.319Z,4.04
2018-02-12T09:49:33.236Z,4.08
2018-02-12T09:50:33.158Z,4.15
2018-02-12T09:51:33.075Z,4.12
2018-02-12T09:52:32.993Z,4.19
2018-02-12T09:53:32.912Z,4.48
2018-02-12T09:54:32.830Z,4.59
2018-02-12T09:55:32.749Z,4.59
2018-02-12T09:56:32.668Z,4.59
2018-02-12T09:57:32.586Z,4.47
2018-02-12T09:58:32.504Z,4.19
2018-02-12T09:59:32.424Z,4.20
2018-02-12T10:00:32.343Z,4.12
2018-02-12T10:01:32.261Z,4.20
2018-02-12T10:02:32.181Z,4.44
2018-02-12T10:03:32.100Z,4.10
2018-02-12T10:04:32.019Z,4.12
2018-02-12T10:05:31.936Z,4.15
2018-02-12T10:06:31.856Z,4.22
2018-02-12T10:07:31.775Z,4.16
2018-02-12T10:08:31.694Z,4.43
2018-02-12T10:09:31.617Z,4.28
2018-02-12T10:10:31.579Z,4.28
2018-02-12T10:11:31.450Z,4.50
2018-02-12T10:12:31.372Z,4.54
2018-02-12T10:13:31.288Z,4.40
2018-02-12T10:14:31.207Z,4.47
2018-02-12T10:15:31.126Z,4.80
2018-02-12T10:16:31.046Z,4.62
2018-02-12T10:17:30.967Z,4.25
2018-02-12T10:18:30.883Z,4.07
2018-02-12T10:19:30.802Z,4.01
2018-02-12T10:20:30.721Z,4.20
2018-02-12T10:21:30.639Z,4.43
2018-02-12T10:22:30.560Z,4.44
2018-02-12T10:23:30.479Z,4.32
2018-02-12T10:24:30.398Z,4.26
2018-02-12T10:25:30.317Z,4.44
2018-02-12T10:26:30.236Z,4.62
2018-02-12T10:27:30.156Z,4.91
2018-02-12T10:28:30.074Z,4.95
2018-02-12T10:29:29.994Z,4.73
2018-02-12T10:30:29.913Z,4.98
2018-02-12T10:31:29.833Z,5.17
2018-02-12T10:32:29.753Z,5.11
2018-02-12T10:33:29.672Z,5.05
2018-02-12T10:34:29.592Z,4.83
2018-02-12T10:35:29.512Z,4.28
2018-02-12T10:36:29.432Z,4.11
2018-02-12T10:37:29.351Z,3.89
2018-02-12T10:38:29.274Z,3.65
2018-02-12T10:39:29.192Z,3.57
2018-02-12T10:40:29.110Z,3.64
2018-02-12T10:41:29.030Z,3.74
2018-02-12T10:42:28.949Z,3.74
2018-02-12T10:43:28.871Z,3.71
2018-02-12T10:44:28.788Z,3.68
2018-02-12T10:45:28.706Z,3.62
2018-02-12T10:46:28.632Z,3.79
2018-02-12T10:47:28.544Z,3.84
2018-02-12T10:48:28.463Z,4.00
2018-02-12T10:49:28.381Z,3.93
2018-02-12T10:50:28.300Z,3.97
2018-02-12T10:51:28.220Z,3.97
2018-02-12T10:52:28.138Z,3.86
2018-02-12T10:53:28.057Z,3.74
2018-02-12T10:54:27.975Z,3.71
2018-02-12T10:55:27.895Z,3.86
2018-02-12T10:56:27.838Z,3.94
2018-02-12T10:57:27.731Z,4.01
2018-02-12T10:58:27.650Z,4.08
2018-02-12T10:59:27.569Z,4.00
2018-02-12T11:00:27.488Z,4.22
2018-02-12T11:01:27.406Z,4.20
2018-02-12T11:02:27.325Z,4.07
2018-02-12T11:03:27.244Z,4.01
2018-02-12T11:04:27.165Z,3.93
2018-02-12T11:05:27.081Z,3.80
2018-02-12T11:06:27.000Z,4.01
2018-02-12T11:07:26.919Z,4.12
2018-02-12T11:08:26.837Z,4.30
2018-02-12T11:09:26.758Z,4.32
2018-02-12T11:10:26.681Z,4.15
2018-02-12T11:11:26.594Z,4.04
2018-02-12T11:12:26.559Z,4.01
2018-02-12T11:13:26.432Z,3.86
2018-02-12T11:14:26.352Z,3.87
2018-02-12T11:15:26.270Z,4.08
2018-02-12T11:16:26.190Z,4.20
2018-02-12T11:17:26.108Z,4.02
2018-02-12T11:18:26.027Z,4.16
2018-02-12T11:19:25.946Z,4.07
2018-02-12T11:20:25.866Z,4.40
2018-02-12T11:21:25.783Z,4.41
2018-02-12T11:22:25.704Z,4.29
2018-02-12T11:23:25.622Z,4.16
2018-02-12T11:24:25.564Z,3.93
2018-02-12T11:25:25.461Z,4.37
2018-02-12T11:26:25.380Z,4.74
2018-02-12T11:27:25.299Z,5.02
2018-02-12T11:28:25.218Z,4.92
2018-02-12T11:29:25.138Z,4.64
2018-02-12T11:30:25.058Z,5.10
2018-02-12T11:31:24.978Z,5.57
2018-02-12T11:32:24.897Z,6.08
2018-02-12T11:33:24.816Z,6.54
2018-02-12T11:34:24.737Z,6.65
2018-02-12T11:35:24.658Z,6.44
2018-02-12T11:36:24.585Z,6.76
2018-02-12T11:37:24.500Z,6.44
2018-02-12T11:38:24.420Z,6.42
2018-02-12T11:39:24.342Z,5.88
2018-02-12T11:40:24.264Z,5.86
2018-02-12T11:41:24.184Z,5.92
2018-02-12T11:42:24.106Z,5.97
2018-02-12T11:43:24.029Z,6.21
2018-02-12T11:44:23.952Z,6.75
2018-02-12T11:45:23.873Z,6.81
2018-02-12T11:46:23.796Z,6.47
2018-02-12T11:47:23.719Z,5.67
2018-02-12T11:48:23.642Z,5.36
2018-02-12T11:49:23.563Z,5.28
2018-02-12T11:50:23.487Z,5.96
2018-02-12T11:51:23.415Z,7.86
2018-02-12T11:52:23.333Z,8.48
2018-02-12T11:53:23.255Z,7.90
2018-02-12T11:54:23.179Z,6.22
2018-02-12T11:55:23.104Z,5.31
2018-02-12T11:56:23.026Z,4.79
2018-02-12T11:57:22.949Z,4.47
2018-02-12T11:58:22.873Z,4.52
2018-02-12T11:59:22.796Z,4.64
2018-02-12T12:00:22.720Z,4.77
2018-02-12T12:01:22.642Z,4.64
2018-02-12T12:02:22.565Z,4.46
2018-02-12T12:03:22.488Z,4.77
2018-02-12T12:04:22.411Z,4.59
2018-02-12T12:05:22.364Z,5.42
2018-02-12T12:06:22.254Z,5.05
2018-02-12T12:07:22.177Z,4.92
2018-02-12T12:08:22.099Z,4.40
2018-02-12T12:09:22.020Z,4.16
2018-02-12T12:10:21.942Z,4.10
2018-02-12T12:11:21.864Z,4.11
2018-02-12T12:12:21.785Z,4.16
2018-02-12T12:13:21.706Z,4.12
2018-02-12T12:14:21.628Z,4.01
2018-02-12T12:15:21.549Z,4.12
2018-02-12T12:16:21.470Z,4.16
2018-02-12T12:17:21.390Z,4.15
2018-02-12T12:18:21.310Z,4.12
2018-02-12T12:19:21.231Z,4.11
2018-02-12T12:20:21.151Z,3.92
2018-02-12T12:21:21.071Z,3.75
2018-02-12T12:22:20.990Z,3.71
2018-02-12T12:23:20.911Z,3.75
2018-02-12T12:24:20.832Z,3.77
2018-02-12T12:25:20.750Z,3.84
2018-02-12T12:26:20.669Z,3.82
2018-02-12T12:27:20.589Z,3.82
2018-02-12T12:28:20.508Z,3.72
2018-02-12T12:29:20.427Z,3.54
2018-02-12T12:30:20.347Z,3.54
2018-02-12T12:31:20.268Z,3.74
2018-02-12T12:32:20.185Z,3.57
2018-02-12T12:33:20.102Z,3.62
2018-02-12T12:34:20.022Z,3.71
2018-02-12T12:35:19.941Z,3.82
2018-02-12T12:36:19.860Z,4.02
2018-02-12T12:37:19.778Z,4.08
2018-02-12T12:38:19.696Z,4.11
2018-02-12T12:39:19.615Z,4.10
2018-02-12T12:40:19.537Z,4.12
2018-02-12T12:41:19.453Z,4.41
2018-02-12T12:42:19.371Z,4.52
2018-02-12T12:43:19.293Z,4.23
2018-02-12T12:44:19.209Z,4.34
2018-02-12T12:45:19.127Z,4.19
2018-02-12T12:46:19.046Z,4.38
2018-02-12T12:47:18.966Z,4.12
2018-02-12T12:48:18.885Z,4.05
2018-02-12T12:49:18.804Z,4.10
2018-02-12T12:50:18.723Z,4.05
2018-02-12T12:51:18.641Z,3.87
2018-02-12T12:52:18.561Z,3.90
2018-02-12T12:53:18.478Z,3.87
2018-02-12T12:54:18.398Z,3.87
2018-02-12T12:55:18.316Z,4.10
2018-02-12T12:56:18.235Z,4.08
2018-02-12T12:57:18.154Z,4.05
2018-02-12T12:58:18.072Z,4.08
2018-02-12T12:59:17.992Z,4.05
2018-02-12T13:00:17.910Z,4.02
2018-02-12T13:01:17.827Z,3.97
2018-02-12T13:02:17.745Z,3.94
2018-02-12T13:03:17.664Z,3.90
2018-02-12T13:04:17.583Z,3.87
2018-02-12T13:05:17.500Z,3.97
2018-02-12T13:06:17.431Z,4.01
2018-02-12T13:07:17.339Z,4.11
2018-02-12T13:08:17.255Z,4.16
2018-02-12T13:09:17.171Z,4.22
2018-02-12T13:10:17.090Z,4.26
2018-02-12T13:11:17.009Z,4.29
2018-02-12T13:12:16.926Z,4.56
2018-02-12T13:13:16.849Z,4.54
2018-02-12T13:14:16.761Z,4.43
2018-02-12T13:15:16.680Z,4.47
2018-02-12T13:16:16.599Z,4.56
2018-02-12T13:17:16.519Z,4.55